sensor_id;sensor_type;location;lat;lon;timestamp;temperature;humidity
38265;DHT22;24062;47.480;8.768;2022-11-21T00:04:14;6.40;73.50
38265;DHT22;24062;47.480;8.768;2022-11-21T00:08:16;6.40;73.20
38265;DHT22;24062;47.480;8.768;2022-11-21T00:12:16;6.40;72.70
38265;DHT22;24062;47.480;8.768;2022-11-21T00:16:28;6.30;72.80
38265;DHT22;24062;47.480;8.768;2022-11-21T00:20:44;6.30;73.30
38265;DHT22;24062;47.480;8.768;2022-11-21T00:24:44;6.40;73.50
38265;DHT22;24062;47.480;8.768;2022-11-21T00:28:44;6.60;73.90
38265;DHT22;24062;47.480;8.768;2022-11-21T00:32:54;6.70;73.90
38265;DHT22;24062;47.480;8.768;2022-11-21T00:37:09;6.70;73.30
38265;DHT22;24062;47.480;8.768;2022-11-21T00:41:09;6.80;73.30
38265;DHT22;24062;47.480;8.768;2022-11-21T00:45:09;6.80;73.60
38265;DHT22;24062;47.480;8.768;2022-11-21T00:49:18;7.00;73.70
38265;DHT22;24062;47.480;8.768;2022-11-21T00:53:34;7.00;73.30
38265;DHT22;24062;47.480;8.768;2022-11-21T00:57:36;6.90;73.90
38265;DHT22;24062;47.480;8.768;2022-11-21T01:01:37;6.90;73.50
38265;DHT22;24062;47.480;8.768;2022-11-21T01:05:46;6.90;73.70
38265;DHT22;24062;47.480;8.768;2022-11-21T01:10:02;6.90;74.10
38265;DHT22;24062;47.480;8.768;2022-11-21T01:14:02;7.10;74.60
38265;DHT22;24062;47.480;8.768;2022-11-21T01:18:03;7.20;74.50
38265;DHT22;24062;47.480;8.768;2022-11-21T01:22:12;7.20;74.70
38265;DHT22;24062;47.480;8.768;2022-11-21T01:26:28;7.30;74.60
38265;DHT22;24062;47.480;8.768;2022-11-21T01:30:28;7.30;74.40
38265;DHT22;24062;47.480;8.768;2022-11-21T01:34:29;7.20;74.80
38265;DHT22;24062;47.480;8.768;2022-11-21T01:38:42;7.30;74.90
38265;DHT22;24062;47.480;8.768;2022-11-21T01:43:00;7.40;75.10
38265;DHT22;24062;47.480;8.768;2022-11-21T01:47:01;7.40;75.00
38265;DHT22;24062;47.480;8.768;2022-11-21T01:51:02;7.40;74.80
38265;DHT22;24062;47.480;8.768;2022-11-21T01:55:13;7.40;73.90
38265;DHT22;24062;47.480;8.768;2022-11-21T01:59:29;7.10;73.50
38265;DHT22;24062;47.480;8.768;2022-11-21T02:03:31;7.10;74.60
38265;DHT22;24062;47.480;8.768;2022-11-21T02:07:32;7.30;74.80
38265;DHT22;24062;47.480;8.768;2022-11-21T02:11:44;7.30;74.40
38265;DHT22;24062;47.480;8.768;2022-11-21T02:16:01;7.30;74.70
38265;DHT22;24062;47.480;8.768;2022-11-21T02:20:03;7.50;75.10
38265;DHT22;24062;47.480;8.768;2022-11-21T02:24:07;7.60;75.10
38265;DHT22;24062;47.480;8.768;2022-11-21T02:28:20;7.80;74.80
38265;DHT22;24062;47.480;8.768;2022-11-21T02:32:37;7.80;74.60
38265;DHT22;24062;47.480;8.768;2022-11-21T02:36:41;7.80;74.40
38265;DHT22;24062;47.480;8.768;2022-11-21T02:40:43;7.80;74.30
38265;DHT22;24062;47.480;8.768;2022-11-21T02:44:56;7.70;73.50
38265;DHT22;24062;47.480;8.768;2022-11-21T02:49:15;7.50;73.30
38265;DHT22;24062;47.480;8.768;2022-11-21T02:53:18;7.50;74.20
38265;DHT22;24062;47.480;8.768;2022-11-21T02:57:19;7.70;74.30
38265;DHT22;24062;47.480;8.768;2022-11-21T03:01:31;7.70;74.00
38265;DHT22;24062;47.480;8.768;2022-11-21T03:05:46;7.60;73.40
38265;DHT22;24062;47.480;8.768;2022-11-21T03:09:47;7.50;73.50
38265;DHT22;24062;47.480;8.768;2022-11-21T03:13:47;7.40;73.60
38265;DHT22;24062;47.480;8.768;2022-11-21T03:17:56;7.30;74.00
38265;DHT22;24062;47.480;8.768;2022-11-21T03:22:14;7.30;74.00
38265;DHT22;24062;47.480;8.768;2022-11-21T03:26:14;7.20;74.50
38265;DHT22;24062;47.480;8.768;2022-11-21T03:30:14;7.10;74.90
38265;DHT22;24062;47.480;8.768;2022-11-21T03:34:23;7.20;75.00
38265;DHT22;24062;47.480;8.768;2022-11-21T03:38:39;7.10;75.40
38265;DHT22;24062;47.480;8.768;2022-11-21T03:42:41;7.00;75.70
38265;DHT22;24062;47.480;8.768;2022-11-21T03:46:43;7.10;76.20
38265;DHT22;24062;47.480;8.768;2022-11-21T03:50:53;7.10;76.30
38265;DHT22;24062;47.480;8.768;2022-11-21T03:55:08;7.10;76.40
38265;DHT22;24062;47.480;8.768;2022-11-21T03:59:08;7.10;76.60
38265;DHT22;24062;47.480;8.768;2022-11-21T04:03:08;7.10;76.90
38265;DHT22;24062;47.480;8.768;2022-11-21T04:07:18;7.10;77.00
38265;DHT22;24062;47.480;8.768;2022-11-21T04:11:33;7.10;77.20
38265;DHT22;24062;47.480;8.768;2022-11-21T04:15:33;7.10;77.50
38265;DHT22;24062;47.480;8.768;2022-11-21T04:19:33;7.00;78.20
38265;DHT22;24062;47.480;8.768;2022-11-21T04:23:45;7.10;78.10
38265;DHT22;24062;47.480;8.768;2022-11-21T04:28:01;7.10;78.00
38265;DHT22;24062;47.480;8.768;2022-11-21T04:32:02;7.10;77.50
38265;DHT22;24062;47.480;8.768;2022-11-21T04:36:02;7.20;77.30
38265;DHT22;24062;47.480;8.768;2022-11-21T04:40:12;7.10;77.50
38265;DHT22;24062;47.480;8.768;2022-11-21T04:44:27;7.20;77.30
38265;DHT22;24062;47.480;8.768;2022-11-21T04:48:28;7.20;77.70
38265;DHT22;24062;47.480;8.768;2022-11-21T04:52:30;7.30;77.50
38265;DHT22;24062;47.480;8.768;2022-11-21T04:56:39;7.20;77.40
38265;DHT22;24062;47.480;8.768;2022-11-21T05:00:54;7.30;77.10
38265;DHT22;24062;47.480;8.768;2022-11-21T05:04:56;7.20;76.80
38265;DHT22;24062;47.480;8.768;2022-11-21T05:08:58;7.10;77.00
38265;DHT22;24062;47.480;8.768;2022-11-21T05:13:09;7.30;77.40
38265;DHT22;24062;47.480;8.768;2022-11-21T05:17:36;7.30;77.10
38265;DHT22;24062;47.480;8.768;2022-11-21T05:21:36;7.40;76.70
38265;DHT22;24062;47.480;8.768;2022-11-21T05:25:36;7.30;76.00
38265;DHT22;24062;47.480;8.768;2022-11-21T05:29:45;7.30;76.30
38265;DHT22;24062;47.480;8.768;2022-11-21T05:34:01;7.20;76.00
38265;DHT22;24062;47.480;8.768;2022-11-21T05:38:01;7.10;76.90
38265;DHT22;24062;47.480;8.768;2022-11-21T05:42:01;7.40;77.10
38265;DHT22;24062;47.480;8.768;2022-11-21T05:46:14;7.50;76.80
38265;DHT22;24062;47.480;8.768;2022-11-21T05:50:30;7.60;76.60
38265;DHT22;24062;47.480;8.768;2022-11-21T05:54:30;7.60;76.60
38265;DHT22;24062;47.480;8.768;2022-11-21T05:58:30;7.70;76.50
38265;DHT22;24062;47.480;8.768;2022-11-21T06:02:39;7.80;76.50
38265;DHT22;24062;47.480;8.768;2022-11-21T06:07:12;7.90;76.40
38265;DHT22;24062;47.480;8.768;2022-11-21T06:11:13;8.00;76.30
38265;DHT22;24062;47.480;8.768;2022-11-21T06:15:14;8.00;75.90
38265;DHT22;24062;47.480;8.768;2022-11-21T06:19:23;8.00;76.10
38265;DHT22;24062;47.480;8.768;2022-11-21T06:23:38;8.00;75.80
38265;DHT22;24062;47.480;8.768;2022-11-21T06:27:40;8.00;75.80
38265;DHT22;24062;47.480;8.768;2022-11-21T06:31:42;8.00;75.60
38265;DHT22;24062;47.480;8.768;2022-11-21T06:35:51;8.00;75.80
38265;DHT22;24062;47.480;8.768;2022-11-21T06:40:07;8.10;75.80
38265;DHT22;24062;47.480;8.768;2022-11-21T06:44:07;8.10;75.60
38265;DHT22;24062;47.480;8.768;2022-11-21T06:48:08;8.20;75.70
38265;DHT22;24062;47.480;8.768;2022-11-21T06:52:17;8.20;75.70
38265;DHT22;24062;47.480;8.768;2022-11-21T06:56:32;8.20;75.40
38265;DHT22;24062;47.480;8.768;2022-11-21T07:00:32;8.10;75.20
38265;DHT22;24062;47.480;8.768;2022-11-21T07:04:33;8.00;75.40
38265;DHT22;24062;47.480;8.768;2022-11-21T07:08:45;8.10;75.50
38265;DHT22;24062;47.480;8.768;2022-11-21T07:13:00;8.00;75.50
38265;DHT22;24062;47.480;8.768;2022-11-21T07:17:18;7.90;75.80
38265;DHT22;24062;47.480;8.768;2022-11-21T07:21:18;7.80;76.10
38265;DHT22;24062;47.480;8.768;2022-11-21T07:25:28;7.90;76.40
38265;DHT22;24062;47.480;8.768;2022-11-21T07:29:43;8.00;76.30
38265;DHT22;24062;47.480;8.768;2022-11-21T07:33:43;8.00;76.40
38265;DHT22;24062;47.480;8.768;2022-11-21T07:37:44;8.10;76.40
38265;DHT22;24062;47.480;8.768;2022-11-21T07:41:53;8.00;76.20
38265;DHT22;24062;47.480;8.768;2022-11-21T07:46:09;8.20;76.70
38265;DHT22;24062;47.480;8.768;2022-11-21T07:50:11;8.30;76.30
38265;DHT22;24062;47.480;8.768;2022-11-21T07:54:13;8.30;76.20
38265;DHT22;24062;47.480;8.768;2022-11-21T07:58:22;8.40;76.20
38265;DHT22;24062;47.480;8.768;2022-11-21T08:02:37;8.50;76.00
38265;DHT22;24062;47.480;8.768;2022-11-21T08:06:38;8.70;76.60
38265;DHT22;24062;47.480;8.768;2022-11-21T08:10:39;9.00;76.80
38265;DHT22;24062;47.480;8.768;2022-11-21T08:14:48;9.30;76.10
38265;DHT22;24062;47.480;8.768;2022-11-21T08:19:04;9.20;75.50
38265;DHT22;24062;47.480;8.768;2022-11-21T08:23:04;9.30;75.20
38265;DHT22;24062;47.480;8.768;2022-11-21T08:27:05;9.10;74.80
38265;DHT22;24062;47.480;8.768;2022-11-21T08:31:17;9.20;75.30
38265;DHT22;24062;47.480;8.768;2022-11-21T08:35:34;9.30;75.70
38265;DHT22;24062;47.480;8.768;2022-11-21T08:39:34;9.30;75.20
38265;DHT22;24062;47.480;8.768;2022-11-21T08:43:34;9.30;75.00
38265;DHT22;24062;47.480;8.768;2022-11-21T08:47:44;9.40;75.20
38265;DHT22;24062;47.480;8.768;2022-11-21T08:51:59;9.50;75.30
38265;DHT22;24062;47.480;8.768;2022-11-21T08:55:59;9.60;75.10
38265;DHT22;24062;47.480;8.768;2022-11-21T08:59:59;9.80;75.50
38265;DHT22;24062;47.480;8.768;2022-11-21T09:04:09;9.90;75.10
38265;DHT22;24062;47.480;8.768;2022-11-21T09:08:24;9.90;75.10
38265;DHT22;24062;47.480;8.768;2022-11-21T09:12:26;10.20;74.10
38265;DHT22;24062;47.480;8.768;2022-11-21T09:16:28;10.50;73.80
38265;DHT22;24062;47.480;8.768;2022-11-21T09:20:54;10.60;73.00
38265;DHT22;24062;47.480;8.768;2022-11-21T09:25:09;11.00;71.70
38265;DHT22;24062;47.480;8.768;2022-11-21T09:29:10;11.50;70.60
38265;DHT22;24062;47.480;8.768;2022-11-21T09:33:13;12.10;70.40
38265;DHT22;24062;47.480;8.768;2022-11-21T09:37:23;12.70;69.10
38265;DHT22;24062;47.480;8.768;2022-11-21T09:41:40;12.50;66.80
38265;DHT22;24062;47.480;8.768;2022-11-21T09:45:54;11.90;66.60
38265;DHT22;24062;47.480;8.768;2022-11-21T09:49:57;12.10;66.60
38265;DHT22;24062;47.480;8.768;2022-11-21T09:54:12;12.80;67.20
38265;DHT22;24062;47.480;8.768;2022-11-21T09:58:30;13.60;66.30
38265;DHT22;24062;47.480;8.768;2022-11-21T10:02:31;13.70;65.10
38265;DHT22;24062;47.480;8.768;2022-11-21T10:06:32;13.90;64.00
38265;DHT22;24062;47.480;8.768;2022-11-21T10:10:47;13.80;63.40
38265;DHT22;24062;47.480;8.768;2022-11-21T10:15:09;14.30;64.90
38265;DHT22;24062;47.480;8.768;2022-11-21T10:19:23;15.00;64.60
38265;DHT22;24062;47.480;8.768;2022-11-21T10:23:33;15.10;63.90
38265;DHT22;24062;47.480;8.768;2022-11-21T10:27:45;14.70;62.40
38265;DHT22;24062;47.480;8.768;2022-11-21T10:32:07;14.10;62.20
38265;DHT22;24062;47.480;8.768;2022-11-21T10:36:13;14.20;62.40
38265;DHT22;24062;47.480;8.768;2022-11-21T10:40:20;14.40;61.80
38265;DHT22;24062;47.480;8.768;2022-11-21T10:44:31;14.50;63.20
38265;DHT22;24062;47.480;8.768;2022-11-21T10:49:04;14.70;63.20
38265;DHT22;24062;47.480;8.768;2022-11-21T10:53:09;14.50;61.40
38265;DHT22;24062;47.480;8.768;2022-11-21T10:57:30;14.30;63.00
38265;DHT22;24062;47.480;8.768;2022-11-21T11:01:39;14.40;63.90
38265;DHT22;24062;47.480;8.768;2022-11-21T11:06:09;14.60;63.90
38265;DHT22;24062;47.480;8.768;2022-11-21T11:10:14;14.50;64.00
38265;DHT22;24062;47.480;8.768;2022-11-21T11:14:14;14.70;64.60
38265;DHT22;24062;47.480;8.768;2022-11-21T11:18:38;14.60;63.10
38265;DHT22;24062;47.480;8.768;2022-11-21T11:22:53;14.60;63.80
38265;DHT22;24062;47.480;8.768;2022-11-21T11:26:56;14.60;63.80
38265;DHT22;24062;47.480;8.768;2022-11-21T11:30:57;14.70;63.50
38265;DHT22;24062;47.480;8.768;2022-11-21T11:35:08;14.50;61.90
38265;DHT22;24062;47.480;8.768;2022-11-21T11:39:32;14.60;63.60
38265;DHT22;24062;47.480;8.768;2022-11-21T11:43:34;15.10;64.60
38265;DHT22;24062;47.480;8.768;2022-11-21T11:47:58;15.30;63.80
38265;DHT22;24062;47.480;8.768;2022-11-21T11:52:08;15.50;63.70
38265;DHT22;24062;47.480;8.768;2022-11-21T11:56:25;15.60;63.30
38265;DHT22;24062;47.480;8.768;2022-11-21T12:00:30;15.70;63.50
38265;DHT22;24062;47.480;8.768;2022-11-21T12:04:33;15.80;63.20
38265;DHT22;24062;47.480;8.768;2022-11-21T12:08:47;15.70;61.70
38265;DHT22;24062;47.480;8.768;2022-11-21T12:13:08;15.90;61.80
38265;DHT22;24062;47.480;8.768;2022-11-21T12:17:09;16.00;62.40
38265;DHT22;24062;47.480;8.768;2022-11-21T12:21:11;16.10;61.70
38265;DHT22;24062;47.480;8.768;2022-11-21T12:25:22;16.20;61.10
38265;DHT22;24062;47.480;8.768;2022-11-21T12:29:41;16.00;60.80
38265;DHT22;24062;47.480;8.768;2022-11-21T12:33:45;16.20;62.00
38265;DHT22;24062;47.480;8.768;2022-11-21T12:37:51;16.50;61.80
38265;DHT22;24062;47.480;8.768;2022-11-21T12:42:06;16.70;61.80
38265;DHT22;24062;47.480;8.768;2022-11-21T12:46:44;16.70;61.30
38265;DHT22;24062;47.480;8.768;2022-11-21T12:50:48;16.90;61.20
38265;DHT22;24062;47.480;8.768;2022-11-21T12:55:13;17.00;61.20
38265;DHT22;24062;47.480;8.768;2022-11-21T12:59:25;17.30;61.20
38265;DHT22;24062;47.480;8.768;2022-11-21T13:03:42;17.50;61.30
38265;DHT22;24062;47.480;8.768;2022-11-21T13:07:44;17.70;61.60
38265;DHT22;24062;47.480;8.768;2022-11-21T13:11:45;18.10;62.60
38265;DHT22;24062;47.480;8.768;2022-11-21T13:16:09;18.30;61.60
38265;DHT22;24062;47.480;8.768;2022-11-21T13:20:27;18.50;61.80
38265;DHT22;24062;47.480;8.768;2022-11-21T13:29:05;18.40;59.30
38265;DHT22;24062;47.480;8.768;2022-11-21T13:33:25;18.20;59.10
38265;DHT22;24062;47.480;8.768;2022-11-21T13:37:58;18.40;59.70
38265;DHT22;24062;47.480;8.768;2022-11-21T13:42:00;18.90;60.70
38265;DHT22;24062;47.480;8.768;2022-11-21T13:55:18;21.10;60.50
38265;DHT22;24062;47.480;8.768;2022-11-21T13:59:27;22.00;60.10
38265;DHT22;24062;47.480;8.768;2022-11-21T14:03:35;21.80;58.10
38265;DHT22;24062;47.480;8.768;2022-11-21T14:07:49;20.60;56.10
38265;DHT22;24062;47.480;8.768;2022-11-21T14:12:06;19.50;55.50
38265;DHT22;24062;47.480;8.768;2022-11-21T14:16:21;18.50;54.40
38265;DHT22;24062;47.480;8.768;2022-11-21T14:20:23;17.50;53.40
38265;DHT22;24062;47.480;8.768;2022-11-21T14:24:31;16.80;53.60
38265;DHT22;24062;47.480;8.768;2022-11-21T14:28:48;16.30;53.30
38265;DHT22;24062;47.480;8.768;2022-11-21T14:32:48;15.90;53.10
38265;DHT22;24062;47.480;8.768;2022-11-21T14:36:49;15.60;52.80
38265;DHT22;24062;47.480;8.768;2022-11-21T14:45:32;15.10;52.30
38265;DHT22;24062;47.480;8.768;2022-11-21T14:49:34;14.90;52.10
38265;DHT22;24062;47.480;8.768;2022-11-21T14:53:37;14.70;51.80
38265;DHT22;24062;47.480;8.768;2022-11-21T14:57:46;14.30;51.30
38265;DHT22;24062;47.480;8.768;2022-11-21T15:02:06;14.10;51.50
38265;DHT22;24062;47.480;8.768;2022-11-21T15:06:09;13.70;51.00
38265;DHT22;24062;47.480;8.768;2022-11-21T15:10:11;13.40;50.90
38265;DHT22;24062;47.480;8.768;2022-11-21T15:14:20;13.20;50.90
38265;DHT22;24062;47.480;8.768;2022-11-21T15:18:40;12.90;50.70
38265;DHT22;24062;47.480;8.768;2022-11-21T15:22:41;12.70;50.70
38265;DHT22;24062;47.480;8.768;2022-11-21T15:26:41;12.30;50.20
38265;DHT22;24062;47.480;8.768;2022-11-21T15:35:28;11.70;50.50
38265;DHT22;24062;47.480;8.768;2022-11-21T15:39:28;11.40;50.20
38265;DHT22;24062;47.480;8.768;2022-11-21T15:43:35;11.10;50.00
38265;DHT22;24062;47.480;8.768;2022-11-21T15:47:43;10.90;50.10
38265;DHT22;24062;47.480;8.768;2022-11-21T15:52:00;10.70;50.00
38265;DHT22;24062;47.480;8.768;2022-11-21T15:56:00;10.50;50.00
38265;DHT22;24062;47.480;8.768;2022-11-21T16:00:01;10.40;50.20
38265;DHT22;24062;47.480;8.768;2022-11-21T16:04:10;10.40;50.30
38265;DHT22;24062;47.480;8.768;2022-11-21T16:08:26;10.40;50.40
38265;DHT22;24062;47.480;8.768;2022-11-21T16:12:28;10.20;50.20
38265;DHT22;24062;47.480;8.768;2022-11-21T16:16:31;10.00;50.30
38265;DHT22;24062;47.480;8.768;2022-11-21T16:20:40;10.00;50.60
38265;DHT22;24062;47.480;8.768;2022-11-21T16:24:57;10.10;50.60
38265;DHT22;24062;47.480;8.768;2022-11-21T16:28:57;10.10;50.60
38265;DHT22;24062;47.480;8.768;2022-11-21T16:33:00;10.00;50.60
38265;DHT22;24062;47.480;8.768;2022-11-21T16:37:07;10.00;50.80
38265;DHT22;24062;47.480;8.768;2022-11-21T16:41:24;9.90;51.60
38265;DHT22;24062;47.480;8.768;2022-11-21T16:45:24;9.90;51.80
38265;DHT22;24062;47.480;8.768;2022-11-21T16:49:25;9.80;51.90
38265;DHT22;24062;47.480;8.768;2022-11-21T16:53:35;9.80;52.00
38265;DHT22;24062;47.480;8.768;2022-11-21T16:57:53;9.80;52.00
38265;DHT22;24062;47.480;8.768;2022-11-21T17:01:55;9.80;52.10
38265;DHT22;24062;47.480;8.768;2022-11-21T17:05:56;9.70;52.10
38265;DHT22;24062;47.480;8.768;2022-11-21T17:10:04;9.50;52.20
38265;DHT22;24062;47.480;8.768;2022-11-21T17:14:20;9.30;52.50
38265;DHT22;24062;47.480;8.768;2022-11-21T17:18:21;9.20;53.20
38265;DHT22;24062;47.480;8.768;2022-11-21T17:22:21;9.10;53.30
38265;DHT22;24062;47.480;8.768;2022-11-21T17:26:30;9.20;53.40
38265;DHT22;24062;47.480;8.768;2022-11-21T17:30:50;9.10;53.30
38265;DHT22;24062;47.480;8.768;2022-11-21T17:34:52;9.10;53.40
38265;DHT22;24062;47.480;8.768;2022-11-21T17:38:54;9.30;53.80
38265;DHT22;24062;47.480;8.768;2022-11-21T17:43:01;9.30;53.50
38265;DHT22;24062;47.480;8.768;2022-11-21T17:47:18;9.30;53.60
38265;DHT22;24062;47.480;8.768;2022-11-21T17:51:19;9.20;53.40
38265;DHT22;24062;47.480;8.768;2022-11-21T17:55:20;9.20;53.60
38265;DHT22;24062;47.480;8.768;2022-11-21T17:59:28;9.10;53.80
38265;DHT22;24062;47.480;8.768;2022-11-21T18:03:44;9.10;54.00
38265;DHT22;24062;47.480;8.768;2022-11-21T18:08:58;9.00;54.30
38265;DHT22;24062;47.480;8.768;2022-11-21T18:12:58;9.00;54.50
38265;DHT22;24062;47.480;8.768;2022-11-21T18:17:09;9.00;54.70
38265;DHT22;24062;47.480;8.768;2022-11-21T18:21:26;9.30;54.80
38265;DHT22;24062;47.480;8.768;2022-11-21T18:25:27;9.20;54.80
38265;DHT22;24062;47.480;8.768;2022-11-21T18:29:28;9.20;54.70
38265;DHT22;24062;47.480;8.768;2022-11-21T18:33:36;9.10;54.60
38265;DHT22;24062;47.480;8.768;2022-11-21T18:37:52;9.10;54.90
38265;DHT22;24062;47.480;8.768;2022-11-21T18:41:53;9.30;55.20
38265;DHT22;24062;47.480;8.768;2022-11-21T18:45:55;9.00;54.90
38265;DHT22;24062;47.480;8.768;2022-11-21T18:50:08;9.20;55.10
38265;DHT22;24062;47.480;8.768;2022-11-21T18:54:24;9.20;55.10
38265;DHT22;24062;47.480;8.768;2022-11-21T18:58:26;9.20;55.20
38265;DHT22;24062;47.480;8.768;2022-11-21T19:02:28;9.20;55.00
38265;DHT22;24062;47.480;8.768;2022-11-21T19:06:36;9.20;55.10
38265;DHT22;24062;47.480;8.768;2022-11-21T19:10:52;9.10;55.10
38265;DHT22;24062;47.480;8.768;2022-11-21T19:14:53;9.10;55.20
38265;DHT22;24062;47.480;8.768;2022-11-21T19:18:53;9.10;55.50
38265;DHT22;24062;47.480;8.768;2022-11-21T19:23:01;9.10;55.70
38265;DHT22;24062;47.480;8.768;2022-11-21T19:27:18;9.10;55.80
38265;DHT22;24062;47.480;8.768;2022-11-21T19:31:22;9.10;55.80
38265;DHT22;24062;47.480;8.768;2022-11-21T19:35:22;9.10;56.00
38265;DHT22;24062;47.480;8.768;2022-11-21T19:39:33;9.10;56.00
38265;DHT22;24062;47.480;8.768;2022-11-21T19:43:50;9.20;56.20
38265;DHT22;24062;47.480;8.768;2022-11-21T19:47:50;9.20;56.40
38265;DHT22;24062;47.480;8.768;2022-11-21T19:51:55;9.20;56.50
38265;DHT22;24062;47.480;8.768;2022-11-21T19:56:07;9.30;56.60
38265;DHT22;24062;47.480;8.768;2022-11-21T20:00:24;9.30;56.60
38265;DHT22;24062;47.480;8.768;2022-11-21T20:04:24;9.30;56.50
38265;DHT22;24062;47.480;8.768;2022-11-21T20:08:24;9.30;56.50
38265;DHT22;24062;47.480;8.768;2022-11-21T20:12:33;9.30;57.40
38265;DHT22;24062;47.480;8.768;2022-11-21T20:16:50;9.40;57.00
38265;DHT22;24062;47.480;8.768;2022-11-21T20:20:53;9.50;57.10
38265;DHT22;24062;47.480;8.768;2022-11-21T20:24:54;9.50;57.20
38265;DHT22;24062;47.480;8.768;2022-11-21T20:29:03;9.50;57.00
38265;DHT22;24062;47.480;8.768;2022-11-21T20:33:20;9.40;57.10
38265;DHT22;24062;47.480;8.768;2022-11-21T20:37:20;9.50;57.40
38265;DHT22;24062;47.480;8.768;2022-11-21T20:41:21;9.50;57.30
38265;DHT22;24062;47.480;8.768;2022-11-21T20:45:29;9.50;57.30
38265;DHT22;24062;47.480;8.768;2022-11-21T20:49:45;9.50;57.50
38265;DHT22;24062;47.480;8.768;2022-11-21T20:53:45;9.60;57.50
38265;DHT22;24062;47.480;8.768;2022-11-21T20:57:46;9.40;57.30
38265;DHT22;24062;47.480;8.768;2022-11-21T21:01:56;9.40;57.40
38265;DHT22;24062;47.480;8.768;2022-11-21T21:06:14;9.30;57.40
38265;DHT22;24062;47.480;8.768;2022-11-21T21:14:47;9.40;57.90
38265;DHT22;24062;47.480;8.768;2022-11-21T21:18:55;9.50;58.20
38265;DHT22;24062;47.480;8.768;2022-11-21T21:23:12;9.50;58.20
38265;DHT22;24062;47.480;8.768;2022-11-21T21:27:12;9.50;58.30
38265;DHT22;24062;47.480;8.768;2022-11-21T21:31:13;9.50;58.30
38265;DHT22;24062;47.480;8.768;2022-11-21T21:35:21;9.40;58.20
38265;DHT22;24062;47.480;8.768;2022-11-21T21:39:38;9.40;58.30
38265;DHT22;24062;47.480;8.768;2022-11-21T21:43:40;9.40;58.40
38265;DHT22;24062;47.480;8.768;2022-11-21T21:47:42;9.40;58.40
38265;DHT22;24062;47.480;8.768;2022-11-21T21:51:50;9.40;58.40
38265;DHT22;24062;47.480;8.768;2022-11-21T21:56:06;9.30;58.40
38265;DHT22;24062;47.480;8.768;2022-11-21T22:00:07;9.30;58.60
38265;DHT22;24062;47.480;8.768;2022-11-21T22:04:08;9.30;58.90
38265;DHT22;24062;47.480;8.768;2022-11-21T22:08:17;9.30;59.60
38265;DHT22;24062;47.480;8.768;2022-11-21T22:12:33;9.30;58.90
38265;DHT22;24062;47.480;8.768;2022-11-21T22:16:34;9.30;59.10
38265;DHT22;24062;47.480;8.768;2022-11-21T22:20:34;9.20;59.20
38265;DHT22;24062;47.480;8.768;2022-11-21T22:24:45;9.20;59.40
38265;DHT22;24062;47.480;8.768;2022-11-21T22:29:01;9.20;59.40
38265;DHT22;24062;47.480;8.768;2022-11-21T22:33:02;9.30;59.50
38265;DHT22;24062;47.480;8.768;2022-11-21T22:37:02;9.30;59.70
38265;DHT22;24062;47.480;8.768;2022-11-21T22:41:12;9.30;59.60
38265;DHT22;24062;47.480;8.768;2022-11-21T22:45:29;9.20;59.50
38265;DHT22;24062;47.480;8.768;2022-11-21T22:49:29;9.10;59.50
38265;DHT22;24062;47.480;8.768;2022-11-21T22:53:29;9.20;59.80
38265;DHT22;24062;47.480;8.768;2022-11-21T22:57:37;9.20;59.80
38265;DHT22;24062;47.480;8.768;2022-11-21T23:01:54;9.20;59.90
38265;DHT22;24062;47.480;8.768;2022-11-21T23:05:59;9.20;59.90
38265;DHT22;24062;47.480;8.768;2022-11-21T23:10:01;9.20;60.00
38265;DHT22;24062;47.480;8.768;2022-11-21T23:14:09;9.30;60.20
38265;DHT22;24062;47.480;8.768;2022-11-21T23:18:25;9.30;60.20
38265;DHT22;24062;47.480;8.768;2022-11-21T23:22:26;9.20;60.20
38265;DHT22;24062;47.480;8.768;2022-11-21T23:26:26;9.20;60.50
38265;DHT22;24062;47.480;8.768;2022-11-21T23:30:34;9.20;60.50
38265;DHT22;24062;47.480;8.768;2022-11-21T23:34:50;9.30;60.70
38265;DHT22;24062;47.480;8.768;2022-11-21T23:38:51;9.30;61.00
38265;DHT22;24062;47.480;8.768;2022-11-21T23:42:51;9.30;61.30
38265;DHT22;24062;47.480;8.768;2022-11-21T23:47:02;9.30;61.10
38265;DHT22;24062;47.480;8.768;2022-11-21T23:51:19;9.20;60.90
38265;DHT22;24062;47.480;8.768;2022-11-21T23:55:19;9.20;60.90
38265;DHT22;24062;47.480;8.768;2022-11-21T23:59:19;9.20;61.80
